Terminal Aerodrome Forecast
Issued by NWS

Home | Current Version | Previous Version | Text Only | Print | Product List | Glossary Off
Versions: 1 2 3 4 5 6 7 8 9 10 11 12 13 14 15 16 17 18 19 20 21 22 23 24 25 26 27 28 29 30 31 32 33 34 35

000
FTUS43 KLOT 251400 AAA
TAFORD
TAF AMD
KORD 251401Z 2514/2618 27013KT P6SM SCT016 OVC028
     FM251500 27011KT P6SM SCT020 SCT250
     FM260000 23006KT P6SM SCT020
     FM260600 20004KT P6SM BKN250
     FM261300 15006KT P6SM SCT150 BKN250=

USA.gov is the U.S. government's official web portal to all federal, state and local government web resources and services.